sensor_id;sensor_type;location;lat;lon;timestamp;P1;durP1;ratioP1;P2;durP2;ratioP2
68800;SDS011;55784;50.734;7.086;2024-02-14T00:01:11;3.53;;;0.80;;
68800;SDS011;55784;50.734;7.086;2024-02-14T00:03:36;4.97;;;0.90;;
68800;SDS011;55784;50.734;7.086;2024-02-14T00:06:03;4.18;;;0.93;;
68800;SDS011;55784;50.734;7.086;2024-02-14T00:08:29;5.13;;;1.10;;
68800;SDS011;55784;50.734;7.086;2024-02-14T00:10:54;4.47;;;0.93;;
68800;SDS011;55784;50.734;7.086;2024-02-14T00:13:19;5.23;;;0.90;;
68800;SDS011;55784;50.734;7.086;2024-02-14T00:15:45;3.43;;;0.80;;
68800;SDS011;55784;50.734;7.086;2024-02-14T00:18:11;4.65;;;0.80;;
68800;SDS011;55784;50.734;7.086;2024-02-14T00:20:36;4.50;;;0.93;;
68800;SDS011;55784;50.734;7.086;2024-02-14T00:23:01;3.93;;;0.87;;
68800;SDS011;55784;50.734;7.086;2024-02-14T00:25:26;3.57;;;0.80;;
68800;SDS011;55784;50.734;7.086;2024-02-14T00:27:52;4.13;;;0.80;;
68800;SDS011;55784;50.734;7.086;2024-02-14T00:30:19;4.65;;;0.80;;
68800;SDS011;55784;50.734;7.086;2024-02-14T00:32:44;3.90;;;0.83;;
68800;SDS011;55784;50.734;7.086;2024-02-14T00:35:09;3.73;;;0.80;;
68800;SDS011;55784;50.734;7.086;2024-02-14T00:37:34;6.27;;;0.80;;
68800;SDS011;55784;50.734;7.086;2024-02-14T00:40:00;3.80;;;0.80;;
68800;SDS011;55784;50.734;7.086;2024-02-14T00:42:25;5.80;;;0.90;;
68800;SDS011;55784;50.734;7.086;2024-02-14T00:44:50;5.00;;;0.90;;
68800;SDS011;55784;50.734;7.086;2024-02-14T00:47:16;4.35;;;0.80;;
68800;SDS011;55784;50.734;7.086;2024-02-14T00:49:41;3.10;;;0.60;;
68800;SDS011;55784;50.734;7.086;2024-02-14T00:52:06;4.63;;;0.80;;
68800;SDS011;55784;50.734;7.086;2024-02-14T00:54:32;3.30;;;0.70;;
68800;SDS011;55784;50.734;7.086;2024-02-14T00:56:57;4.60;;;0.90;;
68800;SDS011;55784;50.734;7.086;2024-02-14T00:59:22;4.13;;;0.70;;
68800;SDS011;55784;50.734;7.086;2024-02-14T01:01:47;4.03;;;0.80;;
68800;SDS011;55784;50.734;7.086;2024-02-14T01:04:12;4.60;;;0.60;;
68800;SDS011;55784;50.734;7.086;2024-02-14T01:06:38;3.13;;;0.80;;
68800;SDS011;55784;50.734;7.086;2024-02-14T01:09:03;4.67;;;0.87;;
68800;SDS011;55784;50.734;7.086;2024-02-14T01:11:28;4.37;;;0.70;;
68800;SDS011;55784;50.734;7.086;2024-02-14T01:13:54;4.30;;;0.80;;
68800;SDS011;55784;50.734;7.086;2024-02-14T01:16:19;3.20;;;0.60;;
68800;SDS011;55784;50.734;7.086;2024-02-14T01:18:44;2.70;;;0.50;;
68800;SDS011;55784;50.734;7.086;2024-02-14T01:21:09;3.17;;;0.70;;
68800;SDS011;55784;50.734;7.086;2024-02-14T01:23:34;2.83;;;0.60;;
68800;SDS011;55784;50.734;7.086;2024-02-14T01:26:00;3.75;;;0.70;;
68800;SDS011;55784;50.734;7.086;2024-02-14T01:28:27;3.70;;;0.80;;
68800;SDS011;55784;50.734;7.086;2024-02-14T01:30:52;3.27;;;0.63;;
68800;SDS011;55784;50.734;7.086;2024-02-14T01:33:17;3.53;;;0.80;;
68800;SDS011;55784;50.734;7.086;2024-02-14T01:35:42;3.58;;;0.70;;
68800;SDS011;55784;50.734;7.086;2024-02-14T01:38:07;3.43;;;0.60;;
68800;SDS011;55784;50.734;7.086;2024-02-14T01:40:33;4.20;;;0.70;;
68800;SDS011;55784;50.734;7.086;2024-02-14T01:42:58;3.13;;;0.60;;
68800;SDS011;55784;50.734;7.086;2024-02-14T01:45:23;4.43;;;0.70;;
68800;SDS011;55784;50.734;7.086;2024-02-14T01:47:48;4.60;;;0.50;;
68800;SDS011;55784;50.734;7.086;2024-02-14T01:50:15;3.55;;;0.60;;
68800;SDS011;55784;50.734;7.086;2024-02-14T01:52:41;3.35;;;0.55;;
68800;SDS011;55784;50.734;7.086;2024-02-14T01:55:06;2.40;;;0.50;;
68800;SDS011;55784;50.734;7.086;2024-02-14T01:57:33;4.05;;;0.70;;
68800;SDS011;55784;50.734;7.086;2024-02-14T01:59:59;3.22;;;0.70;;
68800;SDS011;55784;50.734;7.086;2024-02-14T02:02:25;3.88;;;0.50;;
68800;SDS011;55784;50.734;7.086;2024-02-14T02:04:51;3.10;;;0.50;;
68800;SDS011;55784;50.734;7.086;2024-02-14T02:07:16;2.63;;;0.50;;
68800;SDS011;55784;50.734;7.086;2024-02-14T02:09:42;2.60;;;0.40;;
68800;SDS011;55784;50.734;7.086;2024-02-14T02:12:07;2.77;;;0.60;;
68800;SDS011;55784;50.734;7.086;2024-02-14T02:14:33;3.33;;;0.60;;
68800;SDS011;55784;50.734;7.086;2024-02-14T02:16:58;1.90;;;0.40;;
68800;SDS011;55784;50.734;7.086;2024-02-14T02:19:23;1.90;;;0.45;;
68800;SDS011;55784;50.734;7.086;2024-02-14T02:21:49;2.43;;;0.50;;
68800;SDS011;55784;50.734;7.086;2024-02-14T02:24:14;3.00;;;0.60;;
68800;SDS011;55784;50.734;7.086;2024-02-14T02:26:39;2.53;;;0.50;;
68800;SDS011;55784;50.734;7.086;2024-02-14T02:29:05;3.10;;;0.50;;
68800;SDS011;55784;50.734;7.086;2024-02-14T02:31:31;3.15;;;0.60;;
68800;SDS011;55784;50.734;7.086;2024-02-14T02:33:56;2.97;;;0.50;;
68800;SDS011;55784;50.734;7.086;2024-02-14T02:36:21;2.77;;;0.50;;
68800;SDS011;55784;50.734;7.086;2024-02-14T02:38:49;4.63;;;0.60;;
68800;SDS011;55784;50.734;7.086;2024-02-14T02:41:14;3.43;;;0.60;;
68800;SDS011;55784;50.734;7.086;2024-02-14T02:43:40;3.45;;;0.80;;
68800;SDS011;55784;50.734;7.086;2024-02-14T02:46:05;2.55;;;0.50;;
68800;SDS011;55784;50.734;7.086;2024-02-14T02:48:30;3.03;;;0.70;;
68800;SDS011;55784;50.734;7.086;2024-02-14T02:50:56;2.58;;;0.50;;
68800;SDS011;55784;50.734;7.086;2024-02-14T02:53:21;3.53;;;0.60;;
68800;SDS011;55784;50.734;7.086;2024-02-14T02:55:46;3.23;;;0.60;;
68800;SDS011;55784;50.734;7.086;2024-02-14T02:58:12;3.23;;;0.60;;
68800;SDS011;55784;50.734;7.086;2024-02-14T03:00:37;3.07;;;0.60;;
68800;SDS011;55784;50.734;7.086;2024-02-14T03:03:02;3.07;;;0.60;;
68800;SDS011;55784;50.734;7.086;2024-02-14T03:05:29;3.97;;;0.70;;
68800;SDS011;55784;50.734;7.086;2024-02-14T03:07:58;3.40;;;0.70;;
68800;SDS011;55784;50.734;7.086;2024-02-14T03:10:23;3.73;;;0.60;;
68800;SDS011;55784;50.734;7.086;2024-02-14T03:12:50;3.22;;;0.50;;
68800;SDS011;55784;50.734;7.086;2024-02-14T03:15:15;3.27;;;0.80;;
68800;SDS011;55784;50.734;7.086;2024-02-14T03:17:40;4.60;;;0.70;;
68800;SDS011;55784;50.734;7.086;2024-02-14T03:20:07;3.05;;;0.70;;
68800;SDS011;55784;50.734;7.086;2024-02-14T03:22:35;2.83;;;0.50;;
68800;SDS011;55784;50.734;7.086;2024-02-14T03:25:00;3.40;;;0.60;;
68800;SDS011;55784;50.734;7.086;2024-02-14T03:27:25;3.33;;;0.60;;
68800;SDS011;55784;50.734;7.086;2024-02-14T03:29:51;2.63;;;0.60;;
68800;SDS011;55784;50.734;7.086;2024-02-14T03:32:17;2.57;;;0.50;;
68800;SDS011;55784;50.734;7.086;2024-02-14T03:34:42;2.17;;;0.50;;
68800;SDS011;55784;50.734;7.086;2024-02-14T03:37:07;3.70;;;0.70;;
68800;SDS011;55784;50.734;7.086;2024-02-14T03:39:32;3.83;;;0.60;;
68800;SDS011;55784;50.734;7.086;2024-02-14T03:41:58;4.33;;;0.60;;
68800;SDS011;55784;50.734;7.086;2024-02-14T03:44:26;2.90;;;0.50;;
68800;SDS011;55784;50.734;7.086;2024-02-14T03:46:51;3.40;;;0.67;;
68800;SDS011;55784;50.734;7.086;2024-02-14T03:49:16;2.40;;;0.57;;
68800;SDS011;55784;50.734;7.086;2024-02-14T03:51:41;2.30;;;0.50;;
68800;SDS011;55784;50.734;7.086;2024-02-14T03:54:07;2.83;;;0.50;;
68800;SDS011;55784;50.734;7.086;2024-02-14T03:56:32;2.70;;;0.60;;
68800;SDS011;55784;50.734;7.086;2024-02-14T03:58:58;3.17;;;0.60;;
68800;SDS011;55784;50.734;7.086;2024-02-14T04:01:24;3.53;;;0.65;;
68800;SDS011;55784;50.734;7.086;2024-02-14T04:03:49;3.30;;;0.70;;
68800;SDS011;55784;50.734;7.086;2024-02-14T04:06:14;3.47;;;0.70;;
68800;SDS011;55784;50.734;7.086;2024-02-14T04:08:40;6.77;;;0.90;;
68800;SDS011;55784;50.734;7.086;2024-02-14T04:11:05;2.77;;;0.60;;
68800;SDS011;55784;50.734;7.086;2024-02-14T04:13:30;3.60;;;0.77;;
68800;SDS011;55784;50.734;7.086;2024-02-14T04:15:55;3.17;;;0.60;;
68800;SDS011;55784;50.734;7.086;2024-02-14T04:18:20;2.70;;;0.60;;
68800;SDS011;55784;50.734;7.086;2024-02-14T04:20:46;2.55;;;0.70;;
68800;SDS011;55784;50.734;7.086;2024-02-14T04:23:11;3.70;;;0.50;;
68800;SDS011;55784;50.734;7.086;2024-02-14T04:25:36;4.10;;;0.70;;
68800;SDS011;55784;50.734;7.086;2024-02-14T04:28:05;3.92;;;1.00;;
68800;SDS011;55784;50.734;7.086;2024-02-14T04:30:30;3.42;;;0.85;;
68800;SDS011;55784;50.734;7.086;2024-02-14T04:32:55;7.50;;;1.10;;
68800;SDS011;55784;50.734;7.086;2024-02-14T04:35:20;4.30;;;0.73;;
68800;SDS011;55784;50.734;7.086;2024-02-14T04:37:45;3.38;;;0.80;;
68800;SDS011;55784;50.734;7.086;2024-02-14T04:40:14;4.10;;;0.80;;
68800;SDS011;55784;50.734;7.086;2024-02-14T04:42:42;6.18;;;1.00;;
68800;SDS011;55784;50.734;7.086;2024-02-14T04:45:07;3.43;;;0.70;;
68800;SDS011;55784;50.734;7.086;2024-02-14T04:47:33;6.70;;;1.88;;
68800;SDS011;55784;50.734;7.086;2024-02-14T04:49:58;3.57;;;0.80;;
68800;SDS011;55784;50.734;7.086;2024-02-14T04:52:24;3.50;;;0.60;;
68800;SDS011;55784;50.734;7.086;2024-02-14T04:54:50;3.00;;;0.50;;
68800;SDS011;55784;50.734;7.086;2024-02-14T04:57:15;2.60;;;0.50;;
68800;SDS011;55784;50.734;7.086;2024-02-14T04:59:40;2.53;;;0.50;;
68800;SDS011;55784;50.734;7.086;2024-02-14T05:02:05;2.70;;;0.60;;
68800;SDS011;55784;50.734;7.086;2024-02-14T05:04:31;3.30;;;0.52;;
68800;SDS011;55784;50.734;7.086;2024-02-14T05:06:57;3.43;;;0.80;;
68800;SDS011;55784;50.734;7.086;2024-02-14T05:09:22;3.27;;;0.70;;
68800;SDS011;55784;50.734;7.086;2024-02-14T05:11:47;3.73;;;0.70;;
68800;SDS011;55784;50.734;7.086;2024-02-14T05:14:12;4.73;;;1.07;;
68800;SDS011;55784;50.734;7.086;2024-02-14T05:16:37;4.60;;;0.73;;
68800;SDS011;55784;50.734;7.086;2024-02-14T05:19:03;3.43;;;0.70;;
68800;SDS011;55784;50.734;7.086;2024-02-14T05:21:28;4.60;;;0.80;;
68800;SDS011;55784;50.734;7.086;2024-02-14T05:23:53;4.50;;;0.80;;
68800;SDS011;55784;50.734;7.086;2024-02-14T05:26:18;3.77;;;0.73;;
68800;SDS011;55784;50.734;7.086;2024-02-14T05:28:43;3.90;;;0.80;;
68800;SDS011;55784;50.734;7.086;2024-02-14T05:31:09;3.50;;;0.80;;
68800;SDS011;55784;50.734;7.086;2024-02-14T05:33:34;3.73;;;0.80;;
68800;SDS011;55784;50.734;7.086;2024-02-14T05:35:59;3.83;;;0.80;;
68800;SDS011;55784;50.734;7.086;2024-02-14T05:38:24;4.40;;;0.70;;
68800;SDS011;55784;50.734;7.086;2024-02-14T05:40:49;4.75;;;0.77;;
68800;SDS011;55784;50.734;7.086;2024-02-14T05:43:15;4.33;;;1.10;;
68800;SDS011;55784;50.734;7.086;2024-02-14T05:45:40;5.57;;;1.23;;
68800;SDS011;55784;50.734;7.086;2024-02-14T05:48:06;5.37;;;1.00;;
68800;SDS011;55784;50.734;7.086;2024-02-14T05:50:31;3.07;;;0.77;;
68800;SDS011;55784;50.734;7.086;2024-02-14T05:52:56;4.13;;;0.80;;
68800;SDS011;55784;50.734;7.086;2024-02-14T05:55:22;3.33;;;0.80;;
68800;SDS011;55784;50.734;7.086;2024-02-14T05:57:48;4.53;;;1.00;;
68800;SDS011;55784;50.734;7.086;2024-02-14T06:00:15;4.40;;;0.90;;
68800;SDS011;55784;50.734;7.086;2024-02-14T06:02:40;5.00;;;1.10;;
68800;SDS011;55784;50.734;7.086;2024-02-14T06:05:06;3.90;;;0.90;;
68800;SDS011;55784;50.734;7.086;2024-02-14T06:07:34;4.55;;;1.05;;
68800;SDS011;55784;50.734;7.086;2024-02-14T06:09:59;5.10;;;1.10;;
68800;SDS011;55784;50.734;7.086;2024-02-14T06:12:24;5.67;;;1.30;;
68800;SDS011;55784;50.734;7.086;2024-02-14T06:14:50;9.17;;;2.40;;
68800;SDS011;55784;50.734;7.086;2024-02-14T06:17:15;6.87;;;1.70;;
68800;SDS011;55784;50.734;7.086;2024-02-14T06:19:41;6.13;;;1.10;;
68800;SDS011;55784;50.734;7.086;2024-02-14T06:22:06;5.40;;;1.00;;
68800;SDS011;55784;50.734;7.086;2024-02-14T06:24:32;4.33;;;1.00;;
68800;SDS011;55784;50.734;7.086;2024-02-14T06:26:57;3.67;;;0.83;;
68800;SDS011;55784;50.734;7.086;2024-02-14T06:29:22;4.07;;;0.97;;
68800;SDS011;55784;50.734;7.086;2024-02-14T06:31:47;5.70;;;1.00;;
68800;SDS011;55784;50.734;7.086;2024-02-14T06:34:13;4.70;;;1.00;;
68800;SDS011;55784;50.734;7.086;2024-02-14T06:36:38;4.67;;;1.00;;
68800;SDS011;55784;50.734;7.086;2024-02-14T06:39:04;3.83;;;0.90;;
68800;SDS011;55784;50.734;7.086;2024-02-14T06:41:29;4.50;;;1.00;;
68800;SDS011;55784;50.734;7.086;2024-02-14T06:43:54;7.60;;;0.88;;
68800;SDS011;55784;50.734;7.086;2024-02-14T06:46:20;3.43;;;0.80;;
68800;SDS011;55784;50.734;7.086;2024-02-14T06:48:45;6.13;;;0.90;;
68800;SDS011;55784;50.734;7.086;2024-02-14T06:51:10;4.03;;;0.90;;
68800;SDS011;55784;50.734;7.086;2024-02-14T06:53:38;4.32;;;0.90;;
68800;SDS011;55784;50.734;7.086;2024-02-14T06:56:03;3.03;;;0.60;;
68800;SDS011;55784;50.734;7.086;2024-02-14T06:58:28;4.40;;;0.90;;
68800;SDS011;55784;50.734;7.086;2024-02-14T07:00:55;4.10;;;0.80;;
68800;SDS011;55784;50.734;7.086;2024-02-14T07:03:20;5.33;;;1.10;;
68800;SDS011;55784;50.734;7.086;2024-02-14T07:05:45;3.63;;;0.70;;
68800;SDS011;55784;50.734;7.086;2024-02-14T07:08:10;4.50;;;0.90;;
68800;SDS011;55784;50.734;7.086;2024-02-14T07:10:35;4.60;;;1.30;;
68800;SDS011;55784;50.734;7.086;2024-02-14T07:13:01;6.90;;;2.15;;
68800;SDS011;55784;50.734;7.086;2024-02-14T07:15:27;4.32;;;0.80;;
68800;SDS011;55784;50.734;7.086;2024-02-14T07:17:53;3.58;;;1.00;;
68800;SDS011;55784;50.734;7.086;2024-02-14T07:20:19;6.53;;;1.00;;
68800;SDS011;55784;50.734;7.086;2024-02-14T07:22:45;5.45;;;0.80;;
68800;SDS011;55784;50.734;7.086;2024-02-14T07:25:12;3.45;;;0.88;;
68800;SDS011;55784;50.734;7.086;2024-02-14T07:27:37;4.10;;;0.77;;
68800;SDS011;55784;50.734;7.086;2024-02-14T07:30:03;2.37;;;0.50;;
68800;SDS011;55784;50.734;7.086;2024-02-14T07:32:28;4.07;;;0.50;;
68800;SDS011;55784;50.734;7.086;2024-02-14T07:34:53;1.77;;;0.40;;
68800;SDS011;55784;50.734;7.086;2024-02-14T07:37:18;3.03;;;0.60;;
68800;SDS011;55784;50.734;7.086;2024-02-14T07:39:44;3.08;;;0.60;;
68800;SDS011;55784;50.734;7.086;2024-02-14T07:42:11;3.00;;;0.50;;
68800;SDS011;55784;50.734;7.086;2024-02-14T07:44:36;2.63;;;0.50;;
68800;SDS011;55784;50.734;7.086;2024-02-14T07:47:02;2.67;;;0.53;;
68800;SDS011;55784;50.734;7.086;2024-02-14T07:49:27;3.30;;;0.63;;
68800;SDS011;55784;50.734;7.086;2024-02-14T07:51:52;4.27;;;0.70;;
68800;SDS011;55784;50.734;7.086;2024-02-14T07:54:17;8.03;;;1.80;;
68800;SDS011;55784;50.734;7.086;2024-02-14T07:56:44;3.78;;;0.70;;
68800;SDS011;55784;50.734;7.086;2024-02-14T07:59:09;5.93;;;1.30;;
68800;SDS011;55784;50.734;7.086;2024-02-14T08:01:35;3.20;;;0.60;;
68800;SDS011;55784;50.734;7.086;2024-02-14T08:04:00;5.00;;;0.90;;
68800;SDS011;55784;50.734;7.086;2024-02-14T08:06:25;2.90;;;0.50;;
68800;SDS011;55784;50.734;7.086;2024-02-14T08:08:50;2.53;;;0.40;;
68800;SDS011;55784;50.734;7.086;2024-02-14T08:11:19;4.60;;;0.70;;
68800;SDS011;55784;50.734;7.086;2024-02-14T08:13:45;3.40;;;0.70;;
68800;SDS011;55784;50.734;7.086;2024-02-14T08:16:10;1.87;;;0.40;;
68800;SDS011;55784;50.734;7.086;2024-02-14T08:18:35;3.40;;;0.50;;
68800;SDS011;55784;50.734;7.086;2024-02-14T08:21:01;2.50;;;0.50;;
68800;SDS011;55784;50.734;7.086;2024-02-14T08:23:26;5.20;;;1.00;;
68800;SDS011;55784;50.734;7.086;2024-02-14T08:25:51;3.07;;;0.60;;
68800;SDS011;55784;50.734;7.086;2024-02-14T08:28:16;2.83;;;0.60;;
68800;SDS011;55784;50.734;7.086;2024-02-14T08:30:46;6.18;;;1.13;;
68800;SDS011;55784;50.734;7.086;2024-02-14T08:33:11;2.93;;;0.50;;
68800;SDS011;55784;50.734;7.086;2024-02-14T08:35:36;8.17;;;1.60;;
68800;SDS011;55784;50.734;7.086;2024-02-14T08:38:01;11.33;;;1.80;;
68800;SDS011;55784;50.734;7.086;2024-02-14T08:40:27;6.53;;;1.10;;
68800;SDS011;55784;50.734;7.086;2024-02-14T08:42:52;5.93;;;1.67;;
68800;SDS011;55784;50.734;7.086;2024-02-14T08:45:17;5.27;;;0.97;;
68800;SDS011;55784;50.734;7.086;2024-02-14T08:47:45;4.80;;;0.93;;
68800;SDS011;55784;50.734;7.086;2024-02-14T08:50:11;3.78;;;0.70;;
68800;SDS011;55784;50.734;7.086;2024-02-14T08:52:36;3.50;;;0.73;;
68800;SDS011;55784;50.734;7.086;2024-02-14T08:55:03;6.53;;;0.80;;
68800;SDS011;55784;50.734;7.086;2024-02-14T08:57:28;3.40;;;0.60;;
68800;SDS011;55784;50.734;7.086;2024-02-14T08:59:53;2.43;;;0.50;;
68800;SDS011;55784;50.734;7.086;2024-02-14T09:02:18;4.87;;;0.50;;
68800;SDS011;55784;50.734;7.086;2024-02-14T09:04:44;3.60;;;0.80;;
68800;SDS011;55784;50.734;7.086;2024-02-14T09:07:09;5.73;;;0.80;;
68800;SDS011;55784;50.734;7.086;2024-02-14T09:09:34;5.15;;;0.63;;
68800;SDS011;55784;50.734;7.086;2024-02-14T09:12:00;2.90;;;0.50;;
68800;SDS011;55784;50.734;7.086;2024-02-14T09:14:28;3.60;;;0.70;;
68800;SDS011;55784;50.734;7.086;2024-02-14T09:16:53;4.60;;;0.90;;
68800;SDS011;55784;50.734;7.086;2024-02-14T09:19:18;5.63;;;1.20;;
68800;SDS011;55784;50.734;7.086;2024-02-14T09:21:43;3.07;;;0.80;;
68800;SDS011;55784;50.734;7.086;2024-02-14T09:24:08;3.43;;;0.60;;
68800;SDS011;55784;50.734;7.086;2024-02-14T09:26:34;3.83;;;0.60;;
68800;SDS011;55784;50.734;7.086;2024-02-14T09:28:59;1.83;;;0.40;;
68800;SDS011;55784;50.734;7.086;2024-02-14T09:31:24;3.92;;;0.60;;
68800;SDS011;55784;50.734;7.086;2024-02-14T09:33:49;3.27;;;0.60;;
68800;SDS011;55784;50.734;7.086;2024-02-14T09:36:15;3.87;;;0.50;;
68800;SDS011;55784;50.734;7.086;2024-02-14T09:38:40;3.27;;;0.50;;
68800;SDS011;55784;50.734;7.086;2024-02-14T09:41:11;2.17;;;0.50;;
68800;SDS011;55784;50.734;7.086;2024-02-14T09:43:40;4.88;;;0.80;;
68800;SDS011;55784;50.734;7.086;2024-02-14T09:46:07;3.53;;;0.50;;
68800;SDS011;55784;50.734;7.086;2024-02-14T09:48:33;6.43;;;0.70;;
68800;SDS011;55784;50.734;7.086;2024-02-14T09:50:59;3.13;;;0.80;;
68800;SDS011;55784;50.734;7.086;2024-02-14T09:53:24;2.67;;;0.50;;
68800;SDS011;55784;50.734;7.086;2024-02-14T09:55:51;4.05;;;0.68;;
68800;SDS011;55784;50.734;7.086;2024-02-14T09:58:16;2.03;;;0.50;;
68800;SDS011;55784;50.734;7.086;2024-02-14T10:00:42;2.25;;;0.45;;
68800;SDS011;55784;50.734;7.086;2024-02-14T10:03:07;2.63;;;0.40;;
68800;SDS011;55784;50.734;7.086;2024-02-14T10:05:32;4.27;;;0.90;;
68800;SDS011;55784;50.734;7.086;2024-02-14T10:07:58;3.40;;;0.40;;
68800;SDS011;55784;50.734;7.086;2024-02-14T10:10:23;2.17;;;0.50;;
68800;SDS011;55784;50.734;7.086;2024-02-14T10:12:49;4.18;;;0.90;;
68800;SDS011;55784;50.734;7.086;2024-02-14T10:15:14;3.87;;;0.63;;
68800;SDS011;55784;50.734;7.086;2024-02-14T10:17:40;3.10;;;0.80;;
68800;SDS011;55784;50.734;7.086;2024-02-14T10:20:08;2.40;;;0.50;;
68800;SDS011;55784;50.734;7.086;2024-02-14T10:22:34;4.17;;;0.80;;
68800;SDS011;55784;50.734;7.086;2024-02-14T10:25:01;3.40;;;0.60;;
68800;SDS011;55784;50.734;7.086;2024-02-14T10:27:26;1.98;;;0.35;;
68800;SDS011;55784;50.734;7.086;2024-02-14T10:29:51;3.00;;;0.33;;
68800;SDS011;55784;50.734;7.086;2024-02-14T10:32:16;2.77;;;0.47;;
68800;SDS011;55784;50.734;7.086;2024-02-14T10:34:42;3.27;;;0.30;;
68800;SDS011;55784;50.734;7.086;2024-02-14T10:37:10;5.57;;;0.65;;
68800;SDS011;55784;50.734;7.086;2024-02-14T10:39:38;4.90;;;0.70;;
68800;SDS011;55784;50.734;7.086;2024-02-14T10:42:06;4.00;;;0.50;;
68800;SDS011;55784;50.734;7.086;2024-02-14T10:44:31;4.17;;;0.60;;
68800;SDS011;55784;50.734;7.086;2024-02-14T10:46:57;3.63;;;0.40;;
68800;SDS011;55784;50.734;7.086;2024-02-14T10:49:23;2.55;;;0.50;;
68800;SDS011;55784;50.734;7.086;2024-02-14T10:51:50;3.65;;;0.60;;
68800;SDS011;55784;50.734;7.086;2024-02-14T10:54:18;6.60;;;0.40;;
68800;SDS011;55784;50.734;7.086;2024-02-14T10:56:45;1.73;;;0.30;;
68800;SDS011;55784;50.734;7.086;2024-02-14T10:59:15;3.80;;;0.50;;
68800;SDS011;55784;50.734;7.086;2024-02-14T11:01:41;3.75;;;0.70;;
68800;SDS011;55784;50.734;7.086;2024-02-14T11:04:07;4.63;;;0.80;;
68800;SDS011;55784;50.734;7.086;2024-02-14T11:06:53;3.27;;;0.50;;
68800;SDS011;55784;50.734;7.086;2024-02-14T11:12:37;22.33;;;2.60;;
68800;SDS011;55784;50.734;7.086;2024-02-14T11:15:11;3.90;;;0.40;;
68800;SDS011;55784;50.734;7.086;2024-02-14T11:18:02;3.55;;;0.70;;
68800;SDS011;55784;50.734;7.086;2024-02-14T11:20:45;3.97;;;0.60;;
68800;SDS011;55784;50.734;7.086;2024-02-14T11:26:19;4.40;;;0.43;;
68800;SDS011;55784;50.734;7.086;2024-02-14T11:29:03;3.25;;;0.50;;
68800;SDS011;55784;50.734;7.086;2024-02-14T11:31:48;2.45;;;0.45;;
68800;SDS011;55784;50.734;7.086;2024-02-14T11:34:18;3.90;;;0.70;;
68800;SDS011;55784;50.734;7.086;2024-02-14T11:39:48;3.17;;;0.50;;
68800;SDS011;55784;50.734;7.086;2024-02-14T11:42:33;3.38;;;0.50;;
68800;SDS011;55784;50.734;7.086;2024-02-14T11:47:52;2.85;;;0.80;;
68800;SDS011;55784;50.734;7.086;2024-02-14T11:53:36;3.75;;;0.60;;
68800;SDS011;55784;50.734;7.086;2024-02-14T12:06:02;3.25;;;0.50;;
68800;SDS011;55784;50.734;7.086;2024-02-14T12:11:51;4.35;;;0.60;;
68800;SDS011;55784;50.734;7.086;2024-02-14T12:14:16;2.40;;;0.40;;
68800;SDS011;55784;50.734;7.086;2024-02-14T12:16:45;3.77;;;0.50;;
68800;SDS011;55784;50.734;7.086;2024-02-14T12:19:14;2.00;;;0.45;;
68800;SDS011;55784;50.734;7.086;2024-02-14T12:21:45;1.40;;;0.30;;
68800;SDS011;55784;50.734;7.086;2024-02-14T12:24:11;4.10;;;0.50;;
68800;SDS011;55784;50.734;7.086;2024-02-14T12:26:43;2.70;;;0.50;;
68800;SDS011;55784;50.734;7.086;2024-02-14T12:29:12;3.22;;;0.40;;
68800;SDS011;55784;50.734;7.086;2024-02-14T12:31:46;3.35;;;0.45;;
68800;SDS011;55784;50.734;7.086;2024-02-14T12:34:12;1.23;;;0.30;;
68800;SDS011;55784;50.734;7.086;2024-02-14T12:36:37;1.90;;;0.40;;
68800;SDS011;55784;50.734;7.086;2024-02-14T12:39:03;4.90;;;1.20;;
68800;SDS011;55784;50.734;7.086;2024-02-14T12:41:28;2.20;;;0.50;;
68800;SDS011;55784;50.734;7.086;2024-02-14T12:43:58;2.03;;;0.30;;
68800;SDS011;55784;50.734;7.086;2024-02-14T12:46:24;1.20;;;0.30;;
68800;SDS011;55784;50.734;7.086;2024-02-14T12:48:49;1.53;;;0.30;;
68800;SDS011;55784;50.734;7.086;2024-02-14T12:51:14;3.03;;;0.50;;
68800;SDS011;55784;50.734;7.086;2024-02-14T12:53:40;2.13;;;0.40;;
68800;SDS011;55784;50.734;7.086;2024-02-14T12:56:05;4.03;;;0.60;;
68800;SDS011;55784;50.734;7.086;2024-02-14T12:58:31;5.70;;;1.10;;
68800;SDS011;55784;50.734;7.086;2024-02-14T13:00:57;4.73;;;0.87;;
68800;SDS011;55784;50.734;7.086;2024-02-14T13:03:23;3.10;;;0.70;;
68800;SDS011;55784;50.734;7.086;2024-02-14T13:05:48;3.33;;;0.60;;
68800;SDS011;55784;50.734;7.086;2024-02-14T13:08:14;2.80;;;0.60;;
68800;SDS011;55784;50.734;7.086;2024-02-14T13:10:41;3.53;;;0.60;;
68800;SDS011;55784;50.734;7.086;2024-02-14T13:13:06;2.17;;;0.47;;
68800;SDS011;55784;50.734;7.086;2024-02-14T13:15:32;2.20;;;0.40;;
68800;SDS011;55784;50.734;7.086;2024-02-14T13:17:57;2.57;;;0.40;;
68800;SDS011;55784;50.734;7.086;2024-02-14T13:20:24;2.10;;;0.50;;
68800;SDS011;55784;50.734;7.086;2024-02-14T13:22:49;2.83;;;0.40;;
68800;SDS011;55784;50.734;7.086;2024-02-14T13:25:14;2.80;;;0.63;;
68800;SDS011;55784;50.734;7.086;2024-02-14T13:27:40;2.07;;;0.40;;
68800;SDS011;55784;50.734;7.086;2024-02-14T13:30:05;2.40;;;0.50;;
68800;SDS011;55784;50.734;7.086;2024-02-14T13:32:32;1.88;;;0.40;;
68800;SDS011;55784;50.734;7.086;2024-02-14T13:34:57;2.00;;;0.30;;
68800;SDS011;55784;50.734;7.086;2024-02-14T13:37:22;2.17;;;0.50;;
68800;SDS011;55784;50.734;7.086;2024-02-14T13:39:48;3.60;;;0.40;;
68800;SDS011;55784;50.734;7.086;2024-02-14T13:42:13;7.20;;;2.50;;
68800;SDS011;55784;50.734;7.086;2024-02-14T13:44:38;3.40;;;0.60;;
68800;SDS011;55784;50.734;7.086;2024-02-14T13:47:04;3.53;;;0.70;;
68800;SDS011;55784;50.734;7.086;2024-02-14T13:49:29;3.63;;;0.50;;
68800;SDS011;55784;50.734;7.086;2024-02-14T13:51:54;2.80;;;0.83;;
68800;SDS011;55784;50.734;7.086;2024-02-14T13:54:21;8.05;;;2.80;;
68800;SDS011;55784;50.734;7.086;2024-02-14T13:56:47;5.72;;;1.63;;
68800;SDS011;55784;50.734;7.086;2024-02-14T13:59:14;5.32;;;1.80;;
68800;SDS011;55784;50.734;7.086;2024-02-14T14:01:39;7.50;;;1.60;;
68800;SDS011;55784;50.734;7.086;2024-02-14T14:04:04;5.37;;;1.30;;
68800;SDS011;55784;50.734;7.086;2024-02-14T14:06:30;12.43;;;4.60;;
68800;SDS011;55784;50.734;7.086;2024-02-14T14:08:55;13.95;;;4.50;;
68800;SDS011;55784;50.734;7.086;2024-02-14T14:11:21;12.50;;;4.23;;
68800;SDS011;55784;50.734;7.086;2024-02-14T14:13:46;7.47;;;2.27;;
68800;SDS011;55784;50.734;7.086;2024-02-14T14:16:12;5.93;;;1.60;;
68800;SDS011;55784;50.734;7.086;2024-02-14T14:18:37;5.43;;;1.37;;
68800;SDS011;55784;50.734;7.086;2024-02-14T14:21:03;4.05;;;1.00;;
68800;SDS011;55784;50.734;7.086;2024-02-14T14:23:29;3.17;;;0.70;;
68800;SDS011;55784;50.734;7.086;2024-02-14T14:25:54;3.97;;;0.90;;
68800;SDS011;55784;50.734;7.086;2024-02-14T14:28:19;7.30;;;2.45;;
68800;SDS011;55784;50.734;7.086;2024-02-14T14:30:49;4.90;;;1.40;;
68800;SDS011;55784;50.734;7.086;2024-02-14T14:33:15;5.75;;;1.60;;
68800;SDS011;55784;50.734;7.086;2024-02-14T14:35:40;4.40;;;1.20;;
68800;SDS011;55784;50.734;7.086;2024-02-14T14:38:05;5.70;;;1.70;;
68800;SDS011;55784;50.734;7.086;2024-02-14T14:40:31;4.72;;;1.33;;
68800;SDS011;55784;50.734;7.086;2024-02-14T14:42:57;4.90;;;1.40;;
68800;SDS011;55784;50.734;7.086;2024-02-14T14:45:22;4.73;;;1.50;;
68800;SDS011;55784;50.734;7.086;2024-02-14T14:47:47;5.00;;;1.40;;
68800;SDS011;55784;50.734;7.086;2024-02-14T14:50:12;4.77;;;1.20;;
68800;SDS011;55784;50.734;7.086;2024-02-14T14:52:38;5.50;;;1.20;;
68800;SDS011;55784;50.734;7.086;2024-02-14T14:55:03;8.80;;;3.17;;
68800;SDS011;55784;50.734;7.086;2024-02-14T14:57:29;7.60;;;3.30;;
68800;SDS011;55784;50.734;7.086;2024-02-14T14:59:54;6.53;;;1.80;;
68800;SDS011;55784;50.734;7.086;2024-02-14T15:02:20;6.70;;;2.00;;
68800;SDS011;55784;50.734;7.086;2024-02-14T15:04:45;6.53;;;1.90;;
68800;SDS011;55784;50.734;7.086;2024-02-14T15:07:12;7.68;;;2.10;;
68800;SDS011;55784;50.734;7.086;2024-02-14T15:09:37;6.33;;;1.50;;